Time,TemperatureF,DewpointF,PressureIn,WindDirection,WindDirectionDegrees,WindSpeedMPH,WindSpeedGustMPH,Humidity,HourlyPrecipIn,Conditions,Clouds,dailyrainin,SoftwareType,DateUTC
2013-02-17 09:52:00,33.0,30.0,29.50,SSW,198,7.0,11.0,88,0.00,,,0.00,,2013-02-17 15:52:00,
2013-02-17 10:01:00,34.0,31.0,29.49,SSW,196,5.0,8.0,87,0.00,,,0.00,,2013-02-17 16:01:00,
2013-02-17 10:11:00,34.0,31.0,29.49,SSW,196,5.0,8.0,87,0.00,,,0.00,,2013-02-17 16:11:00,
2013-02-17 10:21:00,35.0,31.0,29.49,SSW,211,6.0,11.0,84,0.00,,,0.00,,2013-02-17 16:21:00,
2013-02-17 10:32:00,35.0,30.0,29.50,SSW,209,2.0,7.0,83,0.00,,,0.00,,2013-02-17 16:32:00,
2013-02-17 10:42:00,35.0,30.0,29.50,SSW,209,2.0,7.0,83,0.00,,,0.00,,2013-02-17 16:42:00,
2013-02-17 10:52:00,37.0,32.0,29.49,SW,227,2.0,6.0,81,0.00,,,0.00,,2013-02-17 16:52:00,
2013-02-17 11:02:00,37.0,31.0,29.49,SW,227,3.0,5.0,80,0.00,,,0.00,,2013-02-17 17:02:00,
2013-02-17 11:11:00,37.0,31.0,29.49,SW,227,3.0,5.0,80,0.00,,,0.00,,2013-02-17 17:11:00,
2013-02-17 11:21:00,38.0,32.0,29.49,WSW,237,4.0,6.0,78,0.00,,,0.00,,2013-02-17 17:21:00,
2013-02-17 11:32:00,40.0,32.0,29.49,West,272,3.0,9.0,74,0.00,,,0.00,,2013-02-17 17:32:00,
2013-02-17 11:41:00,40.0,32.0,29.49,West,272,3.0,9.0,74,0.00,,,0.00,,2013-02-17 17:41:00,
2013-02-17 11:52:00,40.0,32.0,29.48,SW,219,4.0,7.0,74,0.00,,,0.00,,2013-02-17 17:52:00,
2013-02-17 12:02:00,42.0,33.0,29.48,West,270,4.0,6.0,70,0.00,,,0.00,,2013-02-17 18:02:00,
2013-02-17 12:11:00,42.0,33.0,29.48,West,270,4.0,6.0,70,0.00,,,0.00,,2013-02-17 18:11:00,
2013-02-17 12:22:00,42.0,33.0,29.47,SW,236,4.0,7.0,69,0.00,,,0.00,,2013-02-17 18:22:00,
2013-02-17 12:33:00,42.0,33.0,29.47,WSW,241,4.0,6.0,70,0.00,,,0.00,,2013-02-17 18:33:00,
2013-02-17 12:42:00,42.0,33.0,29.47,WSW,241,4.0,6.0,70,0.00,,,0.00,,2013-02-17 18:42:00,
2013-02-17 12:52:00,42.0,33.0,29.46,WSW,242,4.0,6.0,70,0.00,,,0.00,,2013-02-17 18:52:00,
2013-02-17 13:01:00,42.0,33.0,29.45,WSW,246,4.0,6.0,69,0.00,,,0.00,,2013-02-17 19:01:00,
2013-02-17 13:11:00,42.0,33.0,29.45,WSW,246,4.0,6.0,69,0.00,,,0.00,,2013-02-17 19:11:00,
2013-02-17 13:21:00,43.0,33.0,29.44,West,260,2.0,6.0,68,0.00,,,0.00,,2013-02-17 19:21:00,
2013-02-17 13:32:00,42.0,33.0,29.45,West,267,4.0,7.0,69,0.00,,,0.00,,2013-02-17 19:32:00,
2013-02-17 13:42:00,42.0,33.0,29.45,West,267,4.0,7.0,69,0.00,,,0.00,,2013-02-17 19:42:00,
2013-02-17 13:52:00,43.0,33.0,29.44,West,274,6.0,9.0,68,0.00,,,0.00,,2013-02-17 19:52:00,
2013-02-17 14:02:00,43.0,34.0,29.44,West,268,4.0,9.0,70,0.00,,,0.00,,2013-02-17 20:02:00,
2013-02-17 14:11:00,43.0,34.0,29.44,West,268,4.0,9.0,70,0.00,,,0.00,,2013-02-17 20:11:00,
2013-02-17 14:21:00,42.0,33.0,29.44,West,277,5.0,10.0,70,0.00,,,0.00,,2013-02-17 20:21:00,
2013-02-17 14:32:00,42.0,33.0,29.43,NW,306,5.0,9.0,71,0.00,,,0.00,,2013-02-17 20:32:00,
2013-02-17 14:42:00,42.0,33.0,29.43,NW,306,5.0,9.0,71,0.00,,,0.00,,2013-02-17 20:42:00,
2013-02-17 14:52:00,43.0,34.0,29.43,NW,317,3.0,6.0,71,0.00,,,0.00,,2013-02-17 20:52:00,
2013-02-17 15:01:00,43.0,34.0,29.43,NW,318,5.0,10.0,71,0.00,,,0.00,,2013-02-17 21:01:00,
2013-02-17 15:11:00,43.0,34.0,29.43,NW,318,5.0,10.0,71,0.00,,,0.00,,2013-02-17 21:11:00,
2013-02-17 15:21:00,42.0,34.0,29.43,NNW,336,4.0,8.0,74,0.00,,,0.00,,2013-02-17 21:21:00,
2013-02-17 15:32:00,42.0,35.0,29.43,WNW,301,5.0,10.0,75,0.00,,,0.00,,2013-02-17 21:32:00,
2013-02-17 15:41:00,42.0,35.0,29.43,WNW,301,5.0,10.0,75,0.00,,,0.00,,2013-02-17 21:41:00,
2013-02-17 15:53:00,42.0,35.0,29.44,WNW,288,4.0,8.0,75,0.00,,,0.00,,2013-02-17 21:53:00,
2013-02-17 16:01:00,42.0,35.0,29.44,NW,307,3.0,4.0,75,0.00,,,0.00,,2013-02-17 22:01:00,
2013-02-17 16:12:00,42.0,35.0,29.44,NW,307,3.0,4.0,75,0.00,,,0.00,,2013-02-17 22:12:00,
2013-02-17 16:21:00,42.0,35.0,29.44,WNW,300,4.0,5.0,75,0.00,,,0.00,,2013-02-17 22:21:00,
2013-02-17 16:32:00,42.0,35.0,29.44,WNW,291,3.0,6.0,75,0.00,,,0.00,,2013-02-17 22:32:00,
2013-02-17 16:42:00,42.0,35.0,29.44,WNW,291,3.0,6.0,75,0.00,,,0.00,,2013-02-17 22:42:00,
2013-02-17 16:52:00,41.0,34.0,29.44,NW,315,3.0,6.0,77,0.00,,,0.00,,2013-02-17 22:52:00,
2013-02-17 17:02:00,41.0,35.0,29.45,WNW,294,3.0,5.0,78,0.00,,,0.00,,2013-02-17 23:02:00,
2013-02-17 17:11:00,41.0,35.0,29.45,WNW,294,3.0,5.0,78,0.00,,,0.00,,2013-02-17 23:11:00,
2013-02-17 17:21:00,41.0,34.0,29.45,WNW,302,4.0,8.0,77,0.00,,,0.00,,2013-02-17 23:21:00,
2013-02-17 17:32:00,41.0,34.0,29.45,WNW,300,5.0,9.0,77,0.00,,,0.00,,2013-02-17 23:32:00,
2013-02-17 17:42:00,41.0,34.0,29.45,WNW,300,5.0,9.0,77,0.00,,,0.00,,2013-02-17 23:42:00,
2013-02-17 17:52:00,40.0,34.0,29.46,WNW,282,6.0,11.0,78,0.00,,,0.00,,2013-02-17 23:52:00,
2013-02-17 18:01:00,40.0,34.0,29.46,WNW,301,8.0,15.0,78,0.00,,,0.00,,2013-02-18 00:01:00,
2013-02-17 18:11:00,40.0,34.0,29.46,WNW,301,8.0,15.0,78,0.00,,,0.00,,2013-02-18 00:11:00,
2013-02-17 18:22:00,40.0,34.0,29.47,WNW,294,6.0,14.0,79,0.00,,,0.00,,2013-02-18 00:22:00,
2013-02-17 18:31:00,39.0,33.0,29.47,West,271,4.0,13.0,80,0.00,,,0.00,,2013-02-18 00:31:00,
2013-02-17 18:41:00,39.0,33.0,29.47,West,271,4.0,13.0,80,0.00,,,0.00,,2013-02-18 00:41:00,
2013-02-17 18:52:00,39.0,34.0,29.48,West,272,4.0,11.0,82,0.00,,,0.00,,2013-02-18 00:52:00,
2013-02-17 19:01:00,38.0,34.0,29.48,WNW,301,6.0,13.0,84,0.00,,,0.00,,2013-02-18 01:01:00,
2013-02-17 19:11:00,38.0,34.0,29.48,WNW,301,6.0,13.0,84,0.00,,,0.00,,2013-02-18 01:11:00,
2013-02-17 19:21:00,38.0,34.0,29.47,West,281,4.0,8.0,86,0.00,,,0.00,,2013-02-18 01:21:00,
2013-02-17 19:31:00,38.0,34.0,29.48,WNW,298,7.0,11.0,86,0.00,,,0.00,,2013-02-18 01:31:00,
2013-02-17 19:41:00,38.0,34.0,29.48,WNW,298,7.0,11.0,86,0.00,,,0.00,,2013-02-18 01:41:00,
2013-02-17 19:52:00,37.0,33.0,29.49,West,278,5.0,10.0,85,0.00,,,0.00,,2013-02-18 01:52:00,
2013-02-17 20:01:00,37.0,33.0,29.48,West,264,6.0,14.0,86,0.00,,,0.00,,2013-02-18 02:01:00,
2013-02-17 20:11:00,37.0,33.0,29.48,West,264,6.0,14.0,86,0.00,,,0.00,,2013-02-18 02:11:00,
2013-02-17 20:21:00,37.0,33.0,29.49,WNW,299,5.0,12.0,85,0.00,,,0.00,,2013-02-18 02:21:00,
2013-02-17 20:32:00,36.0,32.0,29.49,NW,319,5.0,15.0,86,0.00,,,0.00,,2013-02-18 02:32:00,
2013-02-17 20:41:00,36.0,32.0,29.49,NW,319,5.0,15.0,86,0.00,,,0.00,,2013-02-18 02:41:00,
2013-02-17 20:52:00,36.0,32.0,29.49,West,275,5.0,16.0,86,0.00,,,0.00,,2013-02-18 02:52:00,
2013-02-17 21:01:00,36.0,33.0,29.49,WNW,300,7.0,15.0,87,0.00,,,0.00,,2013-02-18 03:01:00,
2013-02-17 21:11:00,36.0,33.0,29.49,WNW,300,7.0,15.0,87,0.00,,,0.00,,2013-02-18 03:11:00,
2013-02-17 21:21:00,35.0,32.0,29.50,NNW,329,5.0,11.0,88,0.00,,,0.00,,2013-02-18 03:21:00,
2013-02-17 21:31:00,35.0,32.0,29.50,NW,311,6.0,13.0,89,0.00,,,0.00,,2013-02-18 03:31:00,
2013-02-17 21:42:00,35.0,32.0,29.50,NW,311,6.0,13.0,89,0.00,,,0.00,,2013-02-18 03:42:00,
2013-02-17 21:52:00,34.0,31.0,29.51,NNW,347,13.0,25.0,87,0.00,,,0.00,,2013-02-18 03:52:00,
2013-02-17 22:01:00,34.0,31.0,29.51,NNW,345,7.0,20.0,88,0.00,,,0.00,,2013-02-18 04:01:00,
2013-02-17 22:11:00,34.0,31.0,29.51,NNW,345,7.0,20.0,88,0.00,,,0.00,,2013-02-18 04:11:00,
2013-02-17 22:21:00,34.0,31.0,29.51,NNW,335,9.0,17.0,88,0.00,,,0.00,,2013-02-18 04:21:00,
2013-02-17 22:32:00,34.0,31.0,29.51,NNW,348,12.0,23.0,89,0.00,,,0.00,,2013-02-18 04:32:00,
2013-02-17 22:41:00,34.0,31.0,29.51,NNW,348,12.0,23.0,89,0.00,,,0.00,,2013-02-18 04:41:00,
2013-02-17 22:51:00,33.0,30.0,29.51,NNW,340,13.0,21.0,89,0.00,,,0.00,,2013-02-18 04:51:00,
2013-02-17 23:02:00,33.0,30.0,29.51,NW,304,12.0,19.0,90,0.00,,,0.00,,2013-02-18 05:02:00,
2013-02-17 23:11:00,33.0,30.0,29.51,NW,304,12.0,19.0,90,0.00,,,0.00,,2013-02-18 05:11:00,
2013-02-17 23:21:00,33.0,30.0,29.52,NNW,344,11.0,20.0,90,0.00,,,0.00,,2013-02-18 05:21:00,
2013-02-17 23:31:00,33.0,30.0,29.53,NW,319,13.0,23.0,89,0.00,,,0.00,,2013-02-18 05:31:00,
2013-02-17 23:41:00,33.0,30.0,29.53,NW,319,13.0,23.0,89,0.00,,,0.00,,2013-02-18 05:41:00,
2013-02-17 23:52:00,33.0,30.0,29.54,NW,315,13.0,22.0,89,0.00,,,0.00,,2013-02-18 05:52:00,